Spt Pearl — WDD3217 — position and weather

sailwx.info

Track history (hours):
 
Tides and Currents Weather Stations Pressure Air Temp Water Temp Dewpoint Dewpoint Depression Visibility Wind Speed Wind Dir Waves Ship Positions

Spt Pearl

Owner: SPT OFFSHORE, LLC, Freeport, TX. More information available from US FCC via Universal Licensing System and Coast Guard Vessel Documentation Center.

Last reported at 2017-Oct-17 23:52 UTC. Time now 2017-Oct-18 07:10 UTC.
Position N 32°42' W 117°09'.

Length 49 m; draft 3.5 m.

MMSI: 367127440.

Date/timePositionNaut miles runAvg speedWind from/ knotsBaromVisibWave heightAir tempDewpointWater temp
2017-Oct-17 23:52N 32°42' W 117°09'3 8.1
2017-Oct-17 23:28N 32°43' W 117°13'6 8.5
2017-Oct-17 22:48N 32°37' W 117°15'3 8.7
2017-Oct-17 22:31N 32°35' W 117°17'4 8.9
2017-Oct-17 22:00N 32°32' W 117°21'4 9.0
2017-Oct-17 21:30N 32°29' W 117°25'4 8.8
2017-Oct-17 21:00N 32°26' W 117°28'4 9.0
2017-Oct-17 20:30N 32°22' W 117°32'5 9.1
2017-Oct-17 20:00N 32°19' W 117°35'5 9.2
2017-Oct-17 19:30N 32°15' W 117°38'5 9.1
2017-Oct-17 19:00N 32°12' W 117°42'5 9.3
2017-Oct-17 18:30N 32°08' W 117°45'5 9.2
2017-Oct-17 18:01N 32°05' W 117°49'5 9.2
2017-Oct-17 17:31N 32°01' W 117°53'5 9.2
2017-Oct-17 17:01N 31°58' W 117°57'5 9.0
2017-Oct-17 16:30N 31°55' W 118°00'5 9.3
2017-Oct-17 16:01N 31°52' W 118°04'5 9.2
2017-Oct-17 15:30N 31°48' W 118°08'4 8.9
2017-Oct-17 15:00N 31°45' W 118°12'5 9.2
2017-Oct-17 14:30N 31°42' W 118°15'5 9.8
2017-Oct-17 14:00N 31°38' W 118°19'5 9.6
2017-Oct-17 13:30N 31°35' W 118°23'16 4.6
2017-Oct-17 10:09N 31°25' W 118°37'2 2.2
2017-Oct-17 09:09N 31°22' W 118°37'21 3.3
2017-Oct-17 02:53N 31°37' W 118°54'5 2.8
2017-Oct-17 01:12N 31°40' W 118°59'1 2.8
2017-Oct-17 00:56N 31°40' W 118°59'2 2.9
2017-Oct-17 00:25N 31°41' W 119°01'1 3.0
2017-Oct-16 23:59N 31°42' W 119°02'4 3.0
2017-Oct-16 22:44N 31°45' W 119°05'1 3.0
2017-Oct-16 22:17N 31°46' W 119°06'1 3.1
2017-Oct-16 21:59N 31°46' W 119°07'1 3.0
2017-Oct-16 21:30N 31°47' W 119°08'1 1.2
2017-Oct-16 21:00N 31°48' W 119°09'1 3.0
2017-Oct-16 20:31N 31°47' W 119°08'1 2.1
2017-Oct-16 20:00N 31°46' W 119°06'2 2.8
2017-Oct-16 19:25N 31°48' W 119°08'1 2.8
2017-Oct-16 18:57N 31°49' W 119°09'1 2.6
2017-Oct-16 18:30N 31°49' W 119°10'2 2.7
2017-Oct-16 17:55N 31°51' W 119°11'2 3.5
2017-Oct-16 17:25N 31°52' W 119°12'2 3.6
2017-Oct-16 16:59N 31°53' W 119°14'2 3.4
2017-Oct-16 16:28N 31°54' W 119°15'2 3.3
2017-Oct-16 16:00N 31°55' W 119°17'1 2.7
2017-Oct-16 15:30N 31°56' W 119°18'1 2.6
2017-Oct-16 15:01N 31°57' W 119°19'5 5.0
2017-Oct-16 14:00N 31°60' W 119°24'3 6.2
2017-Oct-16 13:31N 32°02' W 119°27'1 1.3
2017-Oct-16 12:54N 32°02' W 119°27'2 1.8
2017-Oct-16 11:50N 32°01' W 119°26'0 1.2
2017-Oct-16 11:27N 32°01' W 119°27'1 2.9
2017-Oct-16 11:00N 32°00' W 119°28'10 2.3
2017-Oct-16 06:48N 32°08' W 119°35'1 3.4
2017-Oct-16 06:30N 32°09' W 119°36'2 3.2
2017-Oct-16 05:58N 32°11' W 119°36'2 3.7
2017-Oct-16 05:30N 32°11' W 119°35'4 5.9
2017-Oct-16 04:54N 32°11' W 119°30'2 5.7
2017-Oct-16 04:30N 32°11' W 119°28'3 5.6
2017-Oct-16 04:00N 32°11' W 119°24'3 5.4
2017-Oct-16 03:30N 32°11' W 119°21'5 4.7
2017-Oct-16 02:25N 32°11' W 119°15'3 7.2
2017-Oct-16 02:00N 32°13' W 119°12'4 7.6
2017-Oct-16 01:31N 32°15' W 119°09'6 7.5
2017-Oct-16 00:46N 32°19' W 119°04'2 6.7
2017-Oct-16 00:30N 32°20' W 119°02'3 6.8
2017-Oct-16 00:01N 32°22' W 118°59'5 6.9
2017-Oct-15 23:20N 32°25' W 118°54'2 6.1
2017-Oct-15 23:00N 32°26' W 118°53'6 5.9
2017-Oct-15 21:56N 32°30' W 118°47'3 6.0
2017-Oct-15 21:25N 32°32' W 118°44'3 7.1
2017-Oct-15 21:00N 32°34' W 118°41'3 6.2
2017-Oct-15 20:30N 32°36' W 118°38'3 6.3
2017-Oct-15 20:00N 32°37' W 118°35'4 6.4
2017-Oct-15 19:27N 32°40' W 118°32'3 6.4
2017-Oct-15 19:01N 32°41' W 118°29'3 6.4
2017-Oct-15 18:31N 32°43' W 118°26'3 6.9
2017-Oct-15 18:01N 32°45' W 118°23'4 7.1
2017-Oct-15 17:31N 32°49' W 118°23'0 0.2
2017-Oct-15 16:57N 32°49' W 118°23'0 0.0
2017-Oct-15 16:18N 32°49' W 118°23'0 0.0
2017-Oct-15 15:54N 32°49' W 118°23'0 0.1
2017-Oct-15 15:30N 32°49' W 118°23'0 0.0
2017-Oct-15 15:00N 32°49' W 118°23'0 0.0
2017-Oct-15 14:00N 32°49' W 118°23'0 0.0
2017-Oct-15 13:30N 32°49' W 118°23'0 0.0
2017-Oct-15 13:00N 32°49' W 118°23'0 0.0
2017-Oct-15 12:27N 32°49' W 118°23'0 0.0
2017-Oct-15 11:51N 32°49' W 118°23'0 0.0
2017-Oct-15 11:30N 32°49' W 118°23'0 0.0
2017-Oct-15 11:00N 32°49' W 118°23'0 0.0
2017-Oct-15 10:30N 32°49' W 118°23'0 0.0
2017-Oct-15 10:00N 32°49' W 118°23'0 0.0
2017-Oct-15 09:30N 32°49' W 118°23'0 0.0
2017-Oct-15 09:00N 32°49' W 118°23'0 0.0
2017-Oct-15 08:30N 32°49' W 118°23'0 0.0
2017-Oct-15 07:57N 32°49' W 118°23'0 0.0
2017-Oct-15 07:30N 32°49' W 118°23'0 0.0
2017-Oct-15 07:00N 32°49' W 118°23'0 0.0
2017-Oct-15 06:30N 32°49' W 118°23'0 0.0
2017-Oct-15 05:54N 32°49' W 118°23'0 0.0
2017-Oct-15 05:30N 32°49' W 118°23'0 0.0
2017-Oct-15 05:00N 32°49' W 118°23'0 0.0
2017-Oct-15 04:30N 32°49' W 118°23'0 0.4
2017-Oct-15 04:00N 32°49' W 118°23'3 5.9
2017-Oct-15 03:30N 32°50' W 118°20'5 9.7
2017-Oct-15 03:00N 32°54' W 118°17'2 4.4
2017-Oct-15 02:30N 32°56' W 118°16'2 5.0
2017-Oct-15 02:00N 32°57' W 118°18'2 3.4
2017-Oct-15 01:30N 32°58' W 118°20'1 1.2
2017-Oct-15 01:00N 32°58' W 118°21'2 3.6
2017-Oct-15 00:30N 32°57' W 118°19'2 3.5
2017-Oct-15 00:00N 32°57' W 118°17'2 3.5
2017-Oct-14 23:30N 32°57' W 118°15'2 3.4
2017-Oct-14 23:00N 32°57' W 118°13'2 3.2
2017-Oct-14 22:30N 32°56' W 118°11'2 4.3
2017-Oct-14 22:00N 32°56' W 118°08'4 7.6
2017-Oct-14 21:30N 32°54' W 118°04'4 7.6
2017-Oct-14 21:00N 32°52' W 118°00'4 7.5
2017-Oct-14 20:30N 32°51' W 117°56'4 8.4
2017-Oct-14 20:00N 32°49' W 117°52'4 8.4
2017-Oct-14 19:30N 32°47' W 117°47'4 8.3
2017-Oct-14 19:00N 32°45' W 117°43'4 8.3
2017-Oct-14 18:30N 32°43' W 117°39'4 8.3
2017-Oct-14 17:59N 32°42' W 117°34'4 8.3
2017-Oct-14 17:30N 32°40' W 117°29'4 8.3
2017-Oct-14 17:00N 32°39' W 117°24'4 8.3
2017-Oct-14 16:30N 32°38' W 117°20'4 8.1
2017-Oct-14 16:00N 32°37' W 117°15'4 7.5
2017-Oct-14 15:30N 32°41' W 117°14'3 6.4
2017-Oct-14 15:00N 32°43' W 117°11'2 2.1
2017-Oct-14 14:06N 32°42' W 117°09'0 0.0
2017-Oct-14 13:54N 32°42' W 117°09'0 0.0
2017-Oct-14 13:30N 32°42' W 117°09'0 0.0
2017-Oct-14 13:00N 32°42' W 117°09'0 0.0
2017-Oct-14 12:21N 32°42' W 117°09'0 0.0
2017-Oct-14 11:06N 32°42' W 117°09'0 0.0
2017-Oct-14 08:00N 32°42' W 117°09'0 0.0
2017-Oct-14 07:06N 32°42' W 117°09'0 0.0
2017-Oct-14 06:54N 32°42' W 117°09'0 0.0
2017-Oct-14 06:30N 32°42' W 117°09'0 0.0
2017-Oct-14 05:42N 32°42' W 117°09'0 0.0
2017-Oct-14 05:24N 32°42' W 117°09'0 0.0
2017-Oct-14 05:00N 32°42' W 117°09'0 0.0
2017-Oct-14 04:12N 32°42' W 117°09'0 0.0
2017-Oct-14 03:39N 32°42' W 117°09'0 0.0
2017-Oct-14 03:30N 32°42' W 117°09'0 0.0
2017-Oct-14 03:00N 32°42' W 117°09'0 0.0
2017-Oct-14 02:24N 32°42' W 117°09'0 0.0
2017-Oct-14 02:00N 32°42' W 117°09'0 0.0
2017-Oct-14 01:30N 32°42' W 117°09'0 0.0
2017-Oct-14 00:57N 32°42' W 117°09'0 0.0
2017-Oct-14 00:24N 32°42' W 117°09'0 0.0
2017-Oct-13 23:57N 32°42' W 117°09'0 0.0
2017-Oct-13 23:30N 32°42' W 117°09'0 0.0
2017-Oct-13 22:48N 32°42' W 117°09'0 0.0
2017-Oct-13 22:30N 32°42' W 117°09'0 0.0
2017-Oct-13 21:54N 32°42' W 117°09'0 0.0
2017-Oct-13 21:24N 32°42' W 117°09'0 0.0
2017-Oct-13 20:12N 32°42' W 117°09'0 0.0
2017-Oct-13 20:00N 32°42' W 117°09'0 0.0
2017-Oct-13 19:24N 32°42' W 117°09'0 0.0
2017-Oct-13 19:00N 32°42' W 117°09'0 0.0
2017-Oct-13 18:24N 32°42' W 117°09'0 0.0
2017-Oct-13 18:00N 32°42' W 117°09'0 0.0
2017-Oct-13 17:30N 32°42' W 117°09'0 0.0
2017-Oct-13 16:54N 32°42' W 117°09'0 0.0
2017-Oct-13 16:12N 32°42' W 117°09'0 0.0
2017-Oct-13 15:59N 32°42' W 117°09'0 0.0
2017-Oct-13 15:23N 32°42' W 117°09'0 0.0
2017-Oct-13 14:41N 32°42' W 117°09'0 0.0
2017-Oct-13 14:11N 32°42' W 117°09'0 0.0
2017-Oct-13 13:53N 32°42' W 117°09'0 0.0
2017-Oct-13 13:29N 32°42' W 117°09'0 0.0
2017-Oct-13 12:59N 32°42' W 117°09'0 0.0
2017-Oct-13 12:29N 32°42' W 117°09'0 0.0
2017-Oct-13 11:11N 32°42' W 117°09'0 0.0
2017-Oct-13 10:59N 32°42' W 117°09'0 0.0
2017-Oct-13 10:29N 32°42' W 117°09'0 0.0
2017-Oct-13 09:53N 32°42' W 117°09'0 0.0
2017-Oct-13 09:29N 32°42' W 117°09'0 0.0
2017-Oct-13 08:35N 32°42' W 117°09'0 0.0
2017-Oct-13 08:11N 32°42' W 117°09'0 0.0
2017-Oct-13 07:59N 32°42' W 117°09'0 0.0
2017-Oct-13 07:29N 32°42' W 117°09'0 0.0
2017-Oct-13 06:44N 32°42' W 117°09'0 0.0
2017-Oct-13 06:23N 32°42' W 117°09'0 0.0
2017-Oct-13 05:59N 32°42' W 117°09'0 0.0
2017-Oct-13 05:29N 32°42' W 117°09'0 0.0
2017-Oct-13 04:59N 32°42' W 117°09'0 0.0
2017-Oct-13 04:29N 32°42' W 117°09'0 0.0
2017-Oct-13 03:41N 32°42' W 117°09'0 0.0
2017-Oct-13 03:23N 32°42' W 117°09'0 0.0
2017-Oct-13 02:59N 32°42' W 117°09'0 0.0
2017-Oct-13 02:05N 32°42' W 117°09'0 0.1
2017-Oct-13 01:59N 32°42' W 117°09'0 0.0
2017-Oct-13 00:35N 32°42' W 117°09'0 0.0
2017-Oct-13 00:17N 32°42' W 117°09'0 0.0
2017-Oct-12 23:53N 32°42' W 117°09'0 0.0
2017-Oct-12 23:29N 32°42' W 117°09'0 0.0
2017-Oct-12 22:59N 32°42' W 117°09'0 0.0
2017-Oct-12 22:29N 32°42' W 117°09'0 0.0
2017-Oct-12 21:59N 32°42' W 117°09'0 0.0
2017-Oct-12 21:29N 32°42' W 117°09'0 0.0
2017-Oct-12 20:59N 32°42' W 117°09'0 0.0
2017-Oct-12 20:29N 32°42' W 117°09'0 0.0
2017-Oct-12 19:59N 32°42' W 117°09'0 0.0
2017-Oct-12 19:23N 32°42' W 117°09'0 0.0
2017-Oct-12 18:59N 32°42' W 117°09'0 0.0
2017-Oct-12 18:23N 32°42' W 117°09'0 0.0
2017-Oct-12 17:59N 32°42' W 117°09'0 0.0
2017-Oct-12 17:29N 32°42' W 117°09'0 0.0
2017-Oct-12 16:59N 32°42' W 117°09'0 0.0
2017-Oct-12 16:23N 32°42' W 117°09'0 0.0
2017-Oct-12 15:58N 32°42' W 117°09'0 0.0
2017-Oct-12 15:28N 32°42' W 117°09'0 0.0
2017-Oct-12 14:58N 32°42' W 117°09'0 0.0
2017-Oct-12 14:22N 32°42' W 117°09'0 0.0
2017-Oct-12 13:58N 32°42' W 117°09'0 0.0
2017-Oct-12 13:28N 32°42' W 117°09'0 0.0
2017-Oct-12 12:58N 32°42' W 117°09'0 0.0
2017-Oct-12 12:28N 32°42' W 117°09'0 0.0
2017-Oct-12 11:52N 32°42' W 117°09'0 0.0
2017-Oct-12 11:28N 32°42' W 117°09'0 0.0
2017-Oct-12 10:58N 32°42' W 117°09'0 0.0
2017-Oct-12 10:25N 32°42' W 117°09'0 0.0
2017-Oct-12 09:58N 32°42' W 117°09'0 0.0
2017-Oct-12 09:28N 32°42' W 117°09'0 0.0
2017-Oct-12 08:55N 32°42' W 117°09'0 0.0
2017-Oct-12 08:28N 32°42' W 117°09'0 0.0
2017-Oct-12 07:58N 32°42' W 117°09'0 0.0
2017-Oct-12 07:22N 32°42' W 117°09'0 0.0
2017-Oct-12 06:58N 32°42' W 117°09'0 0.0
2017-Oct-12 06:19N 32°42' W 117°09'0 0.0
2017-Oct-12 05:58N 32°42' W 117°09'0 0.0
2017-Oct-12 05:28N 32°42' W 117°09'0 0.0
2017-Oct-12 04:58N 32°42' W 117°09'0 0.0
2017-Oct-12 04:28N 32°42' W 117°09'0 0.0
2017-Oct-12 03:58N 32°42' W 117°09'0 0.0
2017-Oct-12 03:25N 32°42' W 117°09'0 0.0
2017-Oct-12 02:58N 32°42' W 117°09'0 0.0
2017-Oct-12 02:22N 32°42' W 117°09'0 0.0
2017-Oct-12 01:58N 32°42' W 117°09'0 0.1
2017-Oct-12 01:04N 32°42' W 117°09'0 0.6
2017-Oct-12 00:58N 32°42' W 117°09'0 0.0
2017-Oct-12 00:28N 32°42' W 117°09'0 0.0
2017-Oct-11 23:58N 32°42' W 117°09'0 0.0
2017-Oct-11 23:28N 32°42' W 117°09'0 0.0
2017-Oct-11 22:58N 32°42' W 117°09'0 0.0
2017-Oct-11 22:19N 32°42' W 117°09'0 0.0
2017-Oct-11 21:58N 32°42' W 117°09'0 0.0
2017-Oct-11 21:28N 32°42' W 117°09'0 0.0
2017-Oct-11 19:52N 32°42' W 117°09'0 0.0
2017-Oct-11 19:28N 32°42' W 117°09'0 0.0
2017-Oct-11 18:58N 32°42' W 117°09'0 0.0
2017-Oct-11 17:40N 32°42' W 117°09'0 0.0
2017-Oct-11 17:28N 32°42' W 117°09'0 0.0
2017-Oct-11 16:58N 32°42' W 117°09'0 0.0
2017-Oct-11 00:00N 32°42' W 117°09'0 0.0
2017-Oct-10 23:27N 32°42' W 117°09'0 0.0
2017-Oct-10 22:57N 32°42' W 117°09'0 0.0
2017-Oct-10 22:30N 32°42' W 117°09'0 0.0
2017-Oct-10 21:18N 32°42' W 117°09'0 0.0
2017-Oct-10 21:00N 32°42' W 117°09'0 0.0
2017-Oct-10 20:30N 32°42' W 117°09'0 0.0
2017-Oct-10 19:51N 32°42' W 117°09'0 0.0
2017-Oct-10 19:30N 32°42' W 117°09'0 0.0
2017-Oct-10 19:00N 32°42' W 117°09'0 0.0
2017-Oct-10 18:27N 32°42' W 117°09'0 0.0
2017-Oct-10 18:00N 32°42' W 117°09'0 0.0
2017-Oct-10 17:18N 32°42' W 117°09'0 0.0
2017-Oct-10 17:00N 32°42' W 117°09'0 0.0
2017-Oct-10 16:27N 32°42' W 117°09'0 0.0
2017-Oct-10 15:56N 32°42' W 117°09'0 0.0
2017-Oct-10 15:29N 32°42' W 117°09'0 0.0
2017-Oct-10 14:59N 32°42' W 117°09'0 0.0
2017-Oct-10 13:59N 32°42' W 117°09'0 0.0
2017-Oct-10 13:29N 32°42' W 117°09'0 0.0
2017-Oct-10 12:23N 32°42' W 117°09'0 0.0
2017-Oct-10 11:56N 32°42' W 117°09'0 0.0
2017-Oct-10 11:29N 32°42' W 117°09'0 0.0
2017-Oct-10 10:59N 32°42' W 117°09'0 0.0
2017-Oct-10 10:23N 32°42' W 117°09'0 0.0
2017-Oct-10 09:53N 32°42' W 117°09'0 0.0
2017-Oct-10 09:29N 32°42' W 117°09'0 0.0
2017-Oct-10 08:59N 32°42' W 117°09'0 0.0
2017-Oct-10 08:29N 32°42' W 117°09'0 0.0
2017-Oct-10 07:59N 32°42' W 117°09'0 0.0
2017-Oct-10 07:23N 32°42' W 117°09'0 0.0
2017-Oct-10 06:53N 32°42' W 117°09'0 0.0
2017-Oct-10 02:44N 32°42' W 117°09'0 0.0
2017-Oct-10 02:26N 32°42' W 117°09'0 0.0
2017-Oct-10 01:56N 32°42' W 117°09'0 0.0
2017-Oct-10 01:02N 32°42' W 117°09'0 0.0
2017-Oct-10 00:44N 32°42' W 117°09'0 0.0
2017-Oct-10 00:26N 32°42' W 117°09'0 0.0
2017-Oct-09 23:32N 32°42' W 117°09'0 0.0
2017-Oct-09 23:14N 32°42' W 117°09'0 0.0
2017-Oct-09 22:56N 32°42' W 117°09'0 0.0
2017-Oct-09 22:26N 32°42' W 117°09'0 0.0
2017-Oct-09 21:56N 32°42' W 117°09'0 0.0
2017-Oct-09 21:26N 32°42' W 117°09'0 0.0
2017-Oct-09 20:56N 32°42' W 117°09'0 0.0
2017-Oct-09 20:29N 32°42' W 117°09'0 0.0
2017-Oct-09 19:56N 32°42' W 117°09'0 0.0
2017-Oct-09 19:26N 32°42' W 117°09'0 0.0
2017-Oct-09 18:59N 32°42' W 117°09'0 0.1
2017-Oct-09 18:26N 32°42' W 117°09'0 0.1
2017-Oct-09 17:59N 32°42' W 117°09'0 0.0
2017-Oct-09 17:29N 32°42' W 117°09'0 0.0
2017-Oct-09 16:59N 32°42' W 117°09'0 0.0
2017-Oct-09 16:22N 32°42' W 117°09'0 0.0
2017-Oct-09 15:55N 32°42' W 117°09'0 0.0
2017-Oct-09 15:19N 32°42' W 117°09'0 0.0
2017-Oct-09 14:49N 32°42' W 117°09'0 0.0
2017-Oct-09 14:25N 32°42' W 117°09'0 0.0
2017-Oct-09 13:55N 32°42' W 117°09'0 0.0
2017-Oct-09 13:28N 32°42' W 117°09'0 0.0
2017-Oct-09 12:58N 32°42' W 117°09'0 0.0
2017-Oct-09 12:01N 32°42' W 117°09'0 0.0
2017-Oct-09 11:49N 32°42' W 117°09'0 0.0
2017-Oct-09 11:25N 32°42' W 117°09'0 0.0
2017-Oct-09 10:55N 32°42' W 117°09'0 0.0
2017-Oct-09 10:28N 32°42' W 117°09'0 0.0
2017-Oct-09 09:58N 32°42' W 117°09'0 0.0
2017-Oct-09 09:28N 32°42' W 117°09'0 0.0
2017-Oct-09 08:58N 32°42' W 117°09'0 0.0
2017-Oct-09 08:19N 32°42' W 117°09'0 0.0
2017-Oct-09 07:58N 32°42' W 117°09'0 0.0
2017-Oct-09 07:28N 32°42' W 117°09'0 0.0
2017-Oct-09 06:58N 32°42' W 117°09'0 0.0
2017-Oct-09 06:25N 32°42' W 117°09'0 0.0
2017-Oct-09 05:49N 32°42' W 117°09'0 0.0
2017-Oct-09 05:19N 32°42' W 117°09'0 0.0
2017-Oct-09 04:46N 32°42' W 117°09'0 0.0
2017-Oct-09 04:19N 32°42' W 117°09'0 0.0
2017-Oct-09 03:55N 32°42' W 117°09'0 0.0
2017-Oct-09 03:25N 32°42' W 117°09'0 0.0
2017-Oct-09 02:55N 32°42' W 117°09'0 0.0
2017-Oct-09 02:25N 32°42' W 117°09'0 0.0
2017-Oct-09 01:37N 32°42' W 117°09'0 0.0
2017-Oct-09 01:25N 32°42' W 117°09'0 0.0
2017-Oct-09 00:31N 32°42' W 117°09'0 0.0
2017-Oct-09 00:25N 32°42' W 117°09'0 0.0
2017-Oct-08 23:58N 32°42' W 117°09'0 0.0
2017-Oct-08 23:25N 32°42' W 117°09'0 0.0
2017-Oct-08 22:49N 32°42' W 117°09'0 0.0
2017-Oct-08 22:22N 32°42' W 117°09'0 0.0
2017-Oct-08 21:55N 32°42' W 117°09'0 0.0
2017-Oct-08 21:25N 32°42' W 117°09'0 0.0
2017-Oct-08 20:55N 32°42' W 117°09'0 0.0
2017-Oct-08 20:25N 32°42' W 117°09'0 0.0
2017-Oct-08 19:52N 32°42' W 117°09'0 0.0
2017-Oct-08 18:43N 32°42' W 117°09'0 0.0
2017-Oct-08 18:19N 32°42' W 117°09'0 0.0
2017-Oct-08 17:55N 32°42' W 117°09'0 0.0
2017-Oct-08 17:25N 32°42' W 117°09'0 0.0
2017-Oct-08 16:49N 32°42' W 117°09'0 0.0
2017-Oct-08 16:28N 32°42' W 117°09'0 0.0
2017-Oct-08 15:48N 32°42' W 117°09'0 0.0
2017-Oct-08 15:18N 32°42' W 117°09'0 0.0
2017-Oct-08 14:54N 32°42' W 117°09'0 0.0
2017-Oct-08 14:27N 32°42' W 117°09'0 0.0
2017-Oct-08 14:00N 32°42' W 117°09'0 0.0
2017-Oct-08 13:30N 32°42' W 117°09'0 0.0
2017-Oct-08 13:00N 32°42' W 117°09'0 0.0
2017-Oct-08 12:12N 32°42' W 117°09'0 0.0
2017-Oct-08 12:00N 32°42' W 117°09'0 0.0
2017-Oct-08 11:30N 32°42' W 117°09'0 0.0
2017-Oct-08 10:57N 32°42' W 117°09'0 0.0
2017-Oct-08 10:18N 32°42' W 117°09'0 0.0
2017-Oct-08 10:00N 32°42' W 117°09'0 0.0
2017-Oct-08 09:30N 32°42' W 117°09'0 0.0
2017-Oct-08 09:00N 32°42' W 117°09'0 0.0
2017-Oct-08 08:30N 32°42' W 117°09'0 0.0
2017-Oct-08 08:00N 32°42' W 117°09'0 0.0
2017-Oct-08 07:21N 32°42' W 117°09'0 0.0
2017-Oct-08 07:00N 32°42' W 117°09'0 0.0
2017-Oct-08 06:27N 32°42' W 117°09'0 0.0
2017-Oct-08 06:00N 32°42' W 117°09'0 0.0
2017-Oct-08 05:30N 32°42' W 117°09'0 0.0
2017-Oct-08 04:57N 32°42' W 117°09'0 0.0
2017-Oct-08 04:30N 32°42' W 117°09'0 0.0
2017-Oct-08 04:00N 32°42' W 117°09'0 0.0
2017-Oct-08 03:27N 32°42' W 117°09'0 0.0
2017-Oct-08 02:57N 32°42' W 117°09'0 0.0
2017-Oct-08 02:30N 32°42' W 117°09'0 0.0
2017-Oct-08 02:00N 32°42' W 117°09'0 0.0
2017-Oct-08 01:30N 32°42' W 117°09'0 0.0
2017-Oct-08 01:00N 32°42' W 117°09'0 0.0
2017-Oct-08 00:30N 32°42' W 117°09'0 0.0
2017-Oct-08 00:00N 32°42' W 117°09'  
Track history (hours):
 
Tides and Currents Weather Stations Pressure Air Temp Water Temp Dewpoint Dewpoint Depression Visibility Wind Speed Wind Dir Waves Ship Positions

Spt Pearl

Owner: SPT OFFSHORE, LLC, Freeport, TX. More information available from US FCC via Universal Licensing System and Coast Guard Vessel Documentation Center.

Last reported at 2017-Oct-17 23:52 UTC. Time now 2017-Oct-18 07:10 UTC.
Position N 32°42' W 117°09'.

Length 49 m; draft 3.5 m.

MMSI: 367127440.

Date/timePositionNaut miles runAvg speedWind from/ knotsBaromVisibWave heightAir tempDewpointWater temp
2017-Oct-17 23:52N 32°42' W 117°09'3 8.1
2017-Oct-17 23:28N 32°43' W 117°13'6 8.5
2017-Oct-17 22:48N 32°37' W 117°15'3 8.7
2017-Oct-17 22:31N 32°35' W 117°17'4 8.9
2017-Oct-17 22:00N 32°32' W 117°21'4 9.0
2017-Oct-17 21:30N 32°29' W 117°25'4 8.8
2017-Oct-17 21:00N 32°26' W 117°28'4 9.0
2017-Oct-17 20:30N 32°22' W 117°32'5 9.1
2017-Oct-17 20:00N 32°19' W 117°35'5 9.2
2017-Oct-17 19:30N 32°15' W 117°38'5 9.1
2017-Oct-17 19:00N 32°12' W 117°42'5 9.3
2017-Oct-17 18:30N 32°08' W 117°45'5 9.2
2017-Oct-17 18:01N 32°05' W 117°49'5 9.2
2017-Oct-17 17:31N 32°01' W 117°53'5 9.2
2017-Oct-17 17:01N 31°58' W 117°57'5 9.0
2017-Oct-17 16:30N 31°55' W 118°00'5 9.3
2017-Oct-17 16:01N 31°52' W 118°04'5 9.2
2017-Oct-17 15:30N 31°48' W 118°08'4 8.9
2017-Oct-17 15:00N 31°45' W 118°12'5 9.2
2017-Oct-17 14:30N 31°42' W 118°15'5 9.8
2017-Oct-17 14:00N 31°38' W 118°19'5 9.6
2017-Oct-17 13:30N 31°35' W 118°23'16 4.6
2017-Oct-17 10:09N 31°25' W 118°37'2 2.2
2017-Oct-17 09:09N 31°22' W 118°37'21 3.3
2017-Oct-17 02:53N 31°37' W 118°54'5 2.8
2017-Oct-17 01:12N 31°40' W 118°59'1 2.8
2017-Oct-17 00:56N 31°40' W 118°59'2 2.9
2017-Oct-17 00:25N 31°41' W 119°01'1 3.0
2017-Oct-16 23:59N 31°42' W 119°02'4 3.0
2017-Oct-16 22:44N 31°45' W 119°05'1 3.0
2017-Oct-16 22:17N 31°46' W 119°06'1 3.1
2017-Oct-16 21:59N 31°46' W 119°07'1 3.0
2017-Oct-16 21:30N 31°47' W 119°08'1 1.2
2017-Oct-16 21:00N 31°48' W 119°09'1 3.0
2017-Oct-16 20:31N 31°47' W 119°08'1 2.1
2017-Oct-16 20:00N 31°46' W 119°06'2 2.8
2017-Oct-16 19:25N 31°48' W 119°08'1 2.8
2017-Oct-16 18:57N 31°49' W 119°09'1 2.6
2017-Oct-16 18:30N 31°49' W 119°10'2 2.7
2017-Oct-16 17:55N 31°51' W 119°11'2 3.5
2017-Oct-16 17:25N 31°52' W 119°12'2 3.6
2017-Oct-16 16:59N 31°53' W 119°14'2 3.4
2017-Oct-16 16:28N 31°54' W 119°15'2 3.3
2017-Oct-16 16:00N 31°55' W 119°17'1 2.7
2017-Oct-16 15:30N 31°56' W 119°18'1 2.6
2017-Oct-16 15:01N 31°57' W 119°19'5 5.0
2017-Oct-16 14:00N 31°60' W 119°24'3 6.2
2017-Oct-16 13:31N 32°02' W 119°27'1 1.3
2017-Oct-16 12:54N 32°02' W 119°27'2 1.8
2017-Oct-16 11:50N 32°01' W 119°26'0 1.2
2017-Oct-16 11:27N 32°01' W 119°27'1 2.9
2017-Oct-16 11:00N 32°00' W 119°28'10 2.3
2017-Oct-16 06:48N 32°08' W 119°35'1 3.4
2017-Oct-16 06:30N 32°09' W 119°36'2 3.2
2017-Oct-16 05:58N 32°11' W 119°36'2 3.7
2017-Oct-16 05:30N 32°11' W 119°35'4 5.9
2017-Oct-16 04:54N 32°11' W 119°30'2 5.7
2017-Oct-16 04:30N 32°11' W 119°28'3 5.6
2017-Oct-16 04:00N 32°11' W 119°24'3 5.4
2017-Oct-16 03:30N 32°11' W 119°21'5 4.7
2017-Oct-16 02:25N 32°11' W 119°15'3 7.2
2017-Oct-16 02:00N 32°13' W 119°12'4 7.6
2017-Oct-16 01:31N 32°15' W 119°09'6 7.5
2017-Oct-16 00:46N 32°19' W 119°04'2 6.7
2017-Oct-16 00:30N 32°20' W 119°02'3 6.8
2017-Oct-16 00:01N 32°22' W 118°59'5 6.9
2017-Oct-15 23:20N 32°25' W 118°54'2 6.1
2017-Oct-15 23:00N 32°26' W 118°53'6 5.9
2017-Oct-15 21:56N 32°30' W 118°47'3 6.0
2017-Oct-15 21:25N 32°32' W 118°44'3 7.1
2017-Oct-15 21:00N 32°34' W 118°41'3 6.2
2017-Oct-15 20:30N 32°36' W 118°38'3 6.3
2017-Oct-15 20:00N 32°37' W 118°35'4 6.4
2017-Oct-15 19:27N 32°40' W 118°32'3 6.4
2017-Oct-15 19:01N 32°41' W 118°29'3 6.4
2017-Oct-15 18:31N 32°43' W 118°26'3 6.9
2017-Oct-15 18:01N 32°45' W 118°23'4 7.1
2017-Oct-15 17:31N 32°49' W 118°23'0 0.2
2017-Oct-15 16:57N 32°49' W 118°23'0 0.0
2017-Oct-15 16:18N 32°49' W 118°23'0 0.0
2017-Oct-15 15:54N 32°49' W 118°23'0 0.1
2017-Oct-15 15:30N 32°49' W 118°23'0 0.0
2017-Oct-15 15:00N 32°49' W 118°23'0 0.0
2017-Oct-15 14:00N 32°49' W 118°23'0 0.0
2017-Oct-15 13:30N 32°49' W 118°23'0 0.0
2017-Oct-15 13:00N 32°49' W 118°23'0 0.0
2017-Oct-15 12:27N 32°49' W 118°23'0 0.0
2017-Oct-15 11:51N 32°49' W 118°23'0 0.0
2017-Oct-15 11:30N 32°49' W 118°23'0 0.0
2017-Oct-15 11:00N 32°49' W 118°23'0 0.0
2017-Oct-15 10:30N 32°49' W 118°23'0 0.0
2017-Oct-15 10:00N 32°49' W 118°23'0 0.0
2017-Oct-15 09:30N 32°49' W 118°23'0 0.0
2017-Oct-15 09:00N 32°49' W 118°23'0 0.0
2017-Oct-15 08:30N 32°49' W 118°23'0 0.0
2017-Oct-15 07:57N 32°49' W 118°23'0 0.0
2017-Oct-15 07:30N 32°49' W 118°23'0 0.0
2017-Oct-15 07:00N 32°49' W 118°23'0 0.0
2017-Oct-15 06:30N 32°49' W 118°23'0 0.0
2017-Oct-15 05:54N 32°49' W 118°23'0 0.0
2017-Oct-15 05:30N 32°49' W 118°23'0 0.0
2017-Oct-15 05:00N 32°49' W 118°23'0 0.0
2017-Oct-15 04:30N 32°49' W 118°23'0 0.4
2017-Oct-15 04:00N 32°49' W 118°23'3 5.9
2017-Oct-15 03:30N 32°50' W 118°20'5 9.7
2017-Oct-15 03:00N 32°54' W 118°17'2 4.4
2017-Oct-15 02:30N 32°56' W 118°16'2 5.0
2017-Oct-15 02:00N 32°57' W 118°18'2 3.4
2017-Oct-15 01:30N 32°58' W 118°20'1 1.2
2017-Oct-15 01:00N 32°58' W 118°21'2 3.6
2017-Oct-15 00:30N 32°57' W 118°19'2 3.5
2017-Oct-15 00:00N 32°57' W 118°17'2 3.5
2017-Oct-14 23:30N 32°57' W 118°15'2 3.4
2017-Oct-14 23:00N 32°57' W 118°13'2 3.2
2017-Oct-14 22:30N 32°56' W 118°11'2 4.3
2017-Oct-14 22:00N 32°56' W 118°08'4 7.6
2017-Oct-14 21:30N 32°54' W 118°04'4 7.6
2017-Oct-14 21:00N 32°52' W 118°00'4 7.5
2017-Oct-14 20:30N 32°51' W 117°56'4 8.4
2017-Oct-14 20:00N 32°49' W 117°52'4 8.4
2017-Oct-14 19:30N 32°47' W 117°47'4 8.3
2017-Oct-14 19:00N 32°45' W 117°43'4 8.3
2017-Oct-14 18:30N 32°43' W 117°39'4 8.3
2017-Oct-14 17:59N 32°42' W 117°34'4 8.3
2017-Oct-14 17:30N 32°40' W 117°29'4 8.3
2017-Oct-14 17:00N 32°39' W 117°24'4 8.3
2017-Oct-14 16:30N 32°38' W 117°20'4 8.1
2017-Oct-14 16:00N 32°37' W 117°15'4 7.5
2017-Oct-14 15:30N 32°41' W 117°14'3 6.4
2017-Oct-14 15:00N 32°43' W 117°11'2 2.1
2017-Oct-14 14:06N 32°42' W 117°09'0 0.0
2017-Oct-14 13:54N 32°42' W 117°09'0 0.0
2017-Oct-14 13:30N 32°42' W 117°09'0 0.0
2017-Oct-14 13:00N 32°42' W 117°09'0 0.0
2017-Oct-14 12:21N 32°42' W 117°09'0 0.0
2017-Oct-14 11:06N 32°42' W 117°09'0 0.0
2017-Oct-14 08:00N 32°42' W 117°09'0 0.0
2017-Oct-14 07:06N 32°42' W 117°09'0 0.0
2017-Oct-14 06:54N 32°42' W 117°09'0 0.0
2017-Oct-14 06:30N 32°42' W 117°09'0 0.0
2017-Oct-14 05:42N 32°42' W 117°09'0 0.0
2017-Oct-14 05:24N 32°42' W 117°09'0 0.0
2017-Oct-14 05:00N 32°42' W 117°09'0 0.0
2017-Oct-14 04:12N 32°42' W 117°09'0 0.0
2017-Oct-14 03:39N 32°42' W 117°09'0 0.0
2017-Oct-14 03:30N 32°42' W 117°09'0 0.0
2017-Oct-14 03:00N 32°42' W 117°09'0 0.0
2017-Oct-14 02:24N 32°42' W 117°09'0 0.0
2017-Oct-14 02:00N 32°42' W 117°09'0 0.0
2017-Oct-14 01:30N 32°42' W 117°09'0 0.0
2017-Oct-14 00:57N 32°42' W 117°09'0 0.0
2017-Oct-14 00:24N 32°42' W 117°09'0 0.0
2017-Oct-13 23:57N 32°42' W 117°09'0 0.0
2017-Oct-13 23:30N 32°42' W 117°09'0 0.0
2017-Oct-13 22:48N 32°42' W 117°09'0 0.0
2017-Oct-13 22:30N 32°42' W 117°09'0 0.0
2017-Oct-13 21:54N 32°42' W 117°09'0 0.0
2017-Oct-13 21:24N 32°42' W 117°09'0 0.0
2017-Oct-13 20:12N 32°42' W 117°09'0 0.0
2017-Oct-13 20:00N 32°42' W 117°09'0 0.0
2017-Oct-13 19:24N 32°42' W 117°09'0 0.0
2017-Oct-13 19:00N 32°42' W 117°09'0 0.0
2017-Oct-13 18:24N 32°42' W 117°09'0 0.0
2017-Oct-13 18:00N 32°42' W 117°09'0 0.0
2017-Oct-13 17:30N 32°42' W 117°09'0 0.0
2017-Oct-13 16:54N 32°42' W 117°09'0 0.0
2017-Oct-13 16:12N 32°42' W 117°09'0 0.0
2017-Oct-13 15:59N 32°42' W 117°09'0 0.0
2017-Oct-13 15:23N 32°42' W 117°09'0 0.0
2017-Oct-13 14:41N 32°42' W 117°09'0 0.0
2017-Oct-13 14:11N 32°42' W 117°09'0 0.0
2017-Oct-13 13:53N 32°42' W 117°09'0 0.0
2017-Oct-13 13:29N 32°42' W 117°09'0 0.0
2017-Oct-13 12:59N 32°42' W 117°09'0 0.0
2017-Oct-13 12:29N 32°42' W 117°09'0 0.0
2017-Oct-13 11:11N 32°42' W 117°09'0 0.0
2017-Oct-13 10:59N 32°42' W 117°09'0 0.0
2017-Oct-13 10:29N 32°42' W 117°09'0 0.0
2017-Oct-13 09:53N 32°42' W 117°09'0 0.0
2017-Oct-13 09:29N 32°42' W 117°09'0 0.0
2017-Oct-13 08:35N 32°42' W 117°09'0 0.0
2017-Oct-13 08:11N 32°42' W 117°09'0 0.0
2017-Oct-13 07:59N 32°42' W 117°09'0 0.0
2017-Oct-13 07:29N 32°42' W 117°09'0 0.0
2017-Oct-13 06:44N 32°42' W 117°09'0 0.0
2017-Oct-13 06:23N 32°42' W 117°09'0 0.0
2017-Oct-13 05:59N 32°42' W 117°09'0 0.0
2017-Oct-13 05:29N 32°42' W 117°09'0 0.0
2017-Oct-13 04:59N 32°42' W 117°09'0 0.0
2017-Oct-13 04:29N 32°42' W 117°09'0 0.0
2017-Oct-13 03:41N 32°42' W 117°09'0 0.0
2017-Oct-13 03:23N 32°42' W 117°09'0 0.0
2017-Oct-13 02:59N 32°42' W 117°09'0 0.0
2017-Oct-13 02:05N 32°42' W 117°09'0 0.1
2017-Oct-13 01:59N 32°42' W 117°09'0 0.0
2017-Oct-13 00:35N 32°42' W 117°09'0 0.0
2017-Oct-13 00:17N 32°42' W 117°09'0 0.0
2017-Oct-12 23:53N 32°42' W 117°09'0 0.0
2017-Oct-12 23:29N 32°42' W 117°09'0 0.0
2017-Oct-12 22:59N 32°42' W 117°09'0 0.0
2017-Oct-12 22:29N 32°42' W 117°09'0 0.0
2017-Oct-12 21:59N 32°42' W 117°09'0 0.0
2017-Oct-12 21:29N 32°42' W 117°09'0 0.0
2017-Oct-12 20:59N 32°42' W 117°09'0 0.0
2017-Oct-12 20:29N 32°42' W 117°09'0 0.0
2017-Oct-12 19:59N 32°42' W 117°09'0 0.0
2017-Oct-12 19:23N 32°42' W 117°09'0 0.0
2017-Oct-12 18:59N 32°42' W 117°09'0 0.0
2017-Oct-12 18:23N 32°42' W 117°09'0 0.0
2017-Oct-12 17:59N 32°42' W 117°09'0 0.0
2017-Oct-12 17:29N 32°42' W 117°09'0 0.0
2017-Oct-12 16:59N 32°42' W 117°09'0 0.0
2017-Oct-12 16:23N 32°42' W 117°09'0 0.0
2017-Oct-12 15:58N 32°42' W 117°09'0 0.0
2017-Oct-12 15:28N 32°42' W 117°09'0 0.0
2017-Oct-12 14:58N 32°42' W 117°09'0 0.0
2017-Oct-12 14:22N 32°42' W 117°09'0 0.0
2017-Oct-12 13:58N 32°42' W 117°09'0 0.0
2017-Oct-12 13:28N 32°42' W 117°09'0 0.0
2017-Oct-12 12:58N 32°42' W 117°09'0 0.0
2017-Oct-12 12:28N 32°42' W 117°09'0 0.0
2017-Oct-12 11:52N 32°42' W 117°09'0 0.0
2017-Oct-12 11:28N 32°42' W 117°09'0 0.0
2017-Oct-12 10:58N 32°42' W 117°09'0 0.0
2017-Oct-12 10:25N 32°42' W 117°09'0 0.0
2017-Oct-12 09:58N 32°42' W 117°09'0 0.0
2017-Oct-12 09:28N 32°42' W 117°09'0 0.0
2017-Oct-12 08:55N 32°42' W 117°09'0 0.0
2017-Oct-12 08:28N 32°42' W 117°09'0 0.0
2017-Oct-12 07:58N 32°42' W 117°09'0 0.0
2017-Oct-12 07:22N 32°42' W 117°09'0 0.0
2017-Oct-12 06:58N 32°42' W 117°09'0 0.0
2017-Oct-12 06:19N 32°42' W 117°09'0 0.0
2017-Oct-12 05:58N 32°42' W 117°09'0 0.0
2017-Oct-12 05:28N 32°42' W 117°09'0 0.0
2017-Oct-12 04:58N 32°42' W 117°09'0 0.0
2017-Oct-12 04:28N 32°42' W 117°09'0 0.0
2017-Oct-12 03:58N 32°42' W 117°09'0 0.0
2017-Oct-12 03:25N 32°42' W 117°09'0 0.0
2017-Oct-12 02:58N 32°42' W 117°09'0 0.0
2017-Oct-12 02:22N 32°42' W 117°09'0 0.0
2017-Oct-12 01:58N 32°42' W 117°09'0 0.1
2017-Oct-12 01:04N 32°42' W 117°09'0 0.6
2017-Oct-12 00:58N 32°42' W 117°09'0 0.0
2017-Oct-12 00:28N 32°42' W 117°09'0 0.0
2017-Oct-11 23:58N 32°42' W 117°09'0 0.0
2017-Oct-11 23:28N 32°42' W 117°09'0 0.0
2017-Oct-11 22:58N 32°42' W 117°09'0 0.0
2017-Oct-11 22:19N 32°42' W 117°09'0 0.0
2017-Oct-11 21:58N 32°42' W 117°09'0 0.0
2017-Oct-11 21:28N 32°42' W 117°09'0 0.0
2017-Oct-11 19:52N 32°42' W 117°09'0 0.0
2017-Oct-11 19:28N 32°42' W 117°09'0 0.0
2017-Oct-11 18:58N 32°42' W 117°09'0 0.0
2017-Oct-11 17:40N 32°42' W 117°09'0 0.0
2017-Oct-11 17:28N 32°42' W 117°09'0 0.0
2017-Oct-11 16:58N 32°42' W 117°09'0 0.0
2017-Oct-11 00:00N 32°42' W 117°09'0 0.0
2017-Oct-10 23:27N 32°42' W 117°09'0 0.0
2017-Oct-10 22:57N 32°42' W 117°09'0 0.0
2017-Oct-10 22:30N 32°42' W 117°09'0 0.0
2017-Oct-10 21:18N 32°42' W 117°09'0 0.0
2017-Oct-10 21:00N 32°42' W 117°09'0 0.0
2017-Oct-10 20:30N 32°42' W 117°09'0 0.0
2017-Oct-10 19:51N 32°42' W 117°09'0 0.0
2017-Oct-10 19:30N 32°42' W 117°09'0 0.0
2017-Oct-10 19:00N 32°42' W 117°09'0 0.0
2017-Oct-10 18:27N 32°42' W 117°09'0 0.0
2017-Oct-10 18:00N 32°42' W 117°09'0 0.0
2017-Oct-10 17:18N 32°42' W 117°09'0 0.0
2017-Oct-10 17:00N 32°42' W 117°09'0 0.0
2017-Oct-10 16:27N 32°42' W 117°09'0 0.0
2017-Oct-10 15:56N 32°42' W 117°09'0 0.0
2017-Oct-10 15:29N 32°42' W 117°09'0 0.0
2017-Oct-10 14:59N 32°42' W 117°09'0 0.0
2017-Oct-10 13:59N 32°42' W 117°09'0 0.0
2017-Oct-10 13:29N 32°42' W 117°09'0 0.0
2017-Oct-10 12:23N 32°42' W 117°09'0 0.0
2017-Oct-10 11:56N 32°42' W 117°09'0 0.0
2017-Oct-10 11:29N 32°42' W 117°09'0 0.0
2017-Oct-10 10:59N 32°42' W 117°09'0 0.0
2017-Oct-10 10:23N 32°42' W 117°09'0 0.0
2017-Oct-10 09:53N 32°42' W 117°09'0 0.0
2017-Oct-10 09:29N 32°42' W 117°09'0 0.0
2017-Oct-10 08:59N 32°42' W 117°09'0 0.0
2017-Oct-10 08:29N 32°42' W 117°09'0 0.0
2017-Oct-10 07:59N 32°42' W 117°09'0 0.0
2017-Oct-10 07:23N 32°42' W 117°09'0 0.0
2017-Oct-10 06:53N 32°42' W 117°09'0 0.0
2017-Oct-10 02:44N 32°42' W 117°09'0 0.0
2017-Oct-10 02:26N 32°42' W 117°09'0 0.0
2017-Oct-10 01:56N 32°42' W 117°09'0 0.0
2017-Oct-10 01:02N 32°42' W 117°09'0 0.0
2017-Oct-10 00:44N 32°42' W 117°09'0 0.0
2017-Oct-10 00:26N 32°42' W 117°09'0 0.0
2017-Oct-09 23:32N 32°42' W 117°09'0 0.0
2017-Oct-09 23:14N 32°42' W 117°09'0 0.0
2017-Oct-09 22:56N 32°42' W 117°09'0 0.0
2017-Oct-09 22:26N 32°42' W 117°09'0 0.0
2017-Oct-09 21:56N 32°42' W 117°09'0 0.0
2017-Oct-09 21:26N 32°42' W 117°09'0 0.0
2017-Oct-09 20:56N 32°42' W 117°09'0 0.0
2017-Oct-09 20:29N 32°42' W 117°09'0 0.0
2017-Oct-09 19:56N 32°42' W 117°09'0 0.0
2017-Oct-09 19:26N 32°42' W 117°09'0 0.0
2017-Oct-09 18:59N 32°42' W 117°09'0 0.1
2017-Oct-09 18:26N 32°42' W 117°09'0 0.1
2017-Oct-09 17:59N 32°42' W 117°09'0 0.0
2017-Oct-09 17:29N 32°42' W 117°09'0 0.0
2017-Oct-09 16:59N 32°42' W 117°09'0 0.0
2017-Oct-09 16:22N 32°42' W 117°09'0 0.0
2017-Oct-09 15:55N 32°42' W 117°09'0 0.0
2017-Oct-09 15:19N 32°42' W 117°09'0 0.0
2017-Oct-09 14:49N 32°42' W 117°09'0 0.0
2017-Oct-09 14:25N 32°42' W 117°09'0 0.0
2017-Oct-09 13:55N 32°42' W 117°09'0 0.0
2017-Oct-09 13:28N 32°42' W 117°09'0 0.0
2017-Oct-09 12:58N 32°42' W 117°09'0 0.0
2017-Oct-09 12:01N 32°42' W 117°09'0 0.0
2017-Oct-09 11:49N 32°42' W 117°09'0 0.0
2017-Oct-09 11:25N 32°42' W 117°09'0 0.0
2017-Oct-09 10:55N 32°42' W 117°09'0 0.0
2017-Oct-09 10:28N 32°42' W 117°09'0 0.0
2017-Oct-09 09:58N 32°42' W 117°09'0 0.0
2017-Oct-09 09:28N 32°42' W 117°09'0 0.0
2017-Oct-09 08:58N 32°42' W 117°09'0 0.0
2017-Oct-09 08:19N 32°42' W 117°09'0 0.0
2017-Oct-09 07:58N 32°42' W 117°09'0 0.0
2017-Oct-09 07:28N 32°42' W 117°09'0 0.0
2017-Oct-09 06:58N 32°42' W 117°09'0 0.0
2017-Oct-09 06:25N 32°42' W 117°09'0 0.0
2017-Oct-09 05:49N 32°42' W 117°09'0 0.0
2017-Oct-09 05:19N 32°42' W 117°09'0 0.0
2017-Oct-09 04:46N 32°42' W 117°09'0 0.0
2017-Oct-09 04:19N 32°42' W 117°09'0 0.0
2017-Oct-09 03:55N 32°42' W 117°09'0 0.0
2017-Oct-09 03:25N 32°42' W 117°09'0 0.0
2017-Oct-09 02:55N 32°42' W 117°09'0 0.0
2017-Oct-09 02:25N 32°42' W 117°09'0 0.0
2017-Oct-09 01:37N 32°42' W 117°09'0 0.0
2017-Oct-09 01:25N 32°42' W 117°09'0 0.0
2017-Oct-09 00:31N 32°42' W 117°09'0 0.0
2017-Oct-09 00:25N 32°42' W 117°09'0 0.0
2017-Oct-08 23:58N 32°42' W 117°09'0 0.0
2017-Oct-08 23:25N 32°42' W 117°09'0 0.0
2017-Oct-08 22:49N 32°42' W 117°09'0 0.0
2017-Oct-08 22:22N 32°42' W 117°09'0 0.0
2017-Oct-08 21:55N 32°42' W 117°09'0 0.0
2017-Oct-08 21:25N 32°42' W 117°09'0 0.0
2017-Oct-08 20:55N 32°42' W 117°09'0 0.0
2017-Oct-08 20:25N 32°42' W 117°09'0 0.0
2017-Oct-08 19:52N 32°42' W 117°09'0 0.0
2017-Oct-08 18:43N 32°42' W 117°09'0 0.0
2017-Oct-08 18:19N 32°42' W 117°09'0 0.0
2017-Oct-08 17:55N 32°42' W 117°09'0 0.0
2017-Oct-08 17:25N 32°42' W 117°09'0 0.0
2017-Oct-08 16:49N 32°42' W 117°09'0 0.0
2017-Oct-08 16:28N 32°42' W 117°09'0 0.0
2017-Oct-08 15:48N 32°42' W 117°09'0 0.0
2017-Oct-08 15:18N 32°42' W 117°09'0 0.0
2017-Oct-08 14:54N 32°42' W 117°09'0 0.0
2017-Oct-08 14:27N 32°42' W 117°09'0 0.0
2017-Oct-08 14:00N 32°42' W 117°09'0 0.0
2017-Oct-08 13:30N 32°42' W 117°09'0 0.0
2017-Oct-08 13:00N 32°42' W 117°09'0 0.0
2017-Oct-08 12:12N 32°42' W 117°09'0 0.0
2017-Oct-08 12:00N 32°42' W 117°09'0 0.0
2017-Oct-08 11:30N 32°42' W 117°09'0 0.0
2017-Oct-08 10:57N 32°42' W 117°09'0 0.0
2017-Oct-08 10:18N 32°42' W 117°09'0 0.0
2017-Oct-08 10:00N 32°42' W 117°09'0 0.0
2017-Oct-08 09:30N 32°42' W 117°09'0 0.0
2017-Oct-08 09:00N 32°42' W 117°09'0 0.0
2017-Oct-08 08:30N 32°42' W 117°09'0 0.0
2017-Oct-08 08:00N 32°42' W 117°09'0 0.0
2017-Oct-08 07:21N 32°42' W 117°09'0 0.0
2017-Oct-08 07:00N 32°42' W 117°09'0 0.0
2017-Oct-08 06:27N 32°42' W 117°09'0 0.0
2017-Oct-08 06:00N 32°42' W 117°09'0 0.0
2017-Oct-08 05:30N 32°42' W 117°09'0 0.0
2017-Oct-08 04:57N 32°42' W 117°09'0 0.0
2017-Oct-08 04:30N 32°42' W 117°09'0 0.0
2017-Oct-08 04:00N 32°42' W 117°09'0 0.0
2017-Oct-08 03:27N 32°42' W 117°09'0 0.0
2017-Oct-08 02:57N 32°42' W 117°09'0 0.0
2017-Oct-08 02:30N 32°42' W 117°09'0 0.0
2017-Oct-08 02:00N 32°42' W 117°09'0 0.0
2017-Oct-08 01:30N 32°42' W 117°09'0 0.0
2017-Oct-08 01:00N 32°42' W 117°09'0 0.0
2017-Oct-08 00:30N 32°42' W 117°09'0 0.0
2017-Oct-08 00:00N 32°42' W 117°09'  

Dump ship's entire track history